Time;durP1;ratioP1;P1;durP2;ratioP2;P2;SDS_P1;SDS_P2;PMS_P1;PMS_P2;Temp;Humidity;BMP_temperature;BMP_pressure;BME280_temperature;BME280_humidity;BME280_pressure;Samples;Min_cycle;Max_cycle;Signal;HPM_P1;HPM_P2
2022/02/01 00:00:44;;;;;;;8.88;5.38;;;;;;;9.11;82.35;100742.41;5052239;28;20041;-80
2022/02/01 00:03:13;;;;;;;10.75;5.68;;;;;;;9.40;83.22;100742.09;5050691;28;20110;-79
2022/02/01 00:05:47;;;;;;;9.25;5.80;;;;;;;9.62;83.68;100743.41;5051566;28;20069;-79
2022/02/01 00:08:24;;;;;;;9.35;6.72;;;;;;;9.79;84.27;100745.50;5042514;28;20053;-79
2022/02/01 00:11:02;;;;;;;10.05;5.97;;;;;;;9.87;84.27;100741.25;5053310;28;20124;-80
2022/02/01 00:13:39;;;;;;;15.13;6.95;;;;;;;9.98;84.34;100736.16;5051329;28;20056;-82
2022/02/01 00:19:18;;;;;;;11.40;6.10;;;;;;;10.11;84.26;100734.66;5050305;28;20056;-81
2022/02/01 00:33:20;;;;;;;10.48;6.43;;;;;;;10.43;84.00;100709.72;5052051;28;20037;-81
2022/02/01 00:35:54;;;;;;;8.40;4.43;;;;;;;10.50;83.60;100715.97;5062979;28;20139;-80
2022/02/01 00:38:26;;;;;;;;;;;;;;;10.51;83.46;100708.03;5032950;28;20045;-81
2022/02/01 00:40:57;;;;;;;5.53;3.70;;;;;;;10.56;83.17;100706.38;5048669;28;20628;-80
2022/02/01 00:43:26;;;;;;;7.85;4.22;;;;;;;10.64;83.05;100703.81;5052091;28;20045;-80
2022/02/01 00:45:53;;;;;;;7.15;4.10;;;;;;;10.67;82.81;100704.78;5052089;28;20056;-80
2022/02/01 00:48:21;;;;;;;9.55;4.93;;;;;;;10.73;82.68;100698.69;5052714;28;20416;-81
2022/02/01 00:50:48;;;;;;;6.90;3.58;;;;;;;10.78;82.70;100697.00;5050629;28;20045;-79
2022/02/01 00:53:16;;;;;;;7.45;3.75;;;;;;;10.84;82.38;100696.19;5050421;28;20072;-80
2022/02/01 00:55:44;;;;;;;10.18;3.75;;;;;;;10.91;82.20;100687.47;5051129;28;20052;-81
2022/02/01 00:58:11;;;;;;;8.80;4.25;;;;;;;10.95;82.16;100681.38;5050693;28;20071;-81
2022/02/01 01:00:40;;;;;;;8.68;3.08;;;;;;;11.05;81.78;100697.34;5050438;28;20067;-81
2022/02/01 01:03:09;;;;;;;6.10;4.00;;;;;;;11.06;81.47;100707.06;5050576;28;20072;-80
2022/02/01 01:05:38;;;;;;;6.53;3.60;;;;;;;11.06;81.10;100692.97;5051636;28;20041;-80
2022/02/01 01:08:06;;;;;;;5.63;2.83;;;;;;;11.11;80.93;100712.38;5050369;28;20053;-80
2022/02/01 01:10:34;;;;;;;6.75;3.65;;;;;;;11.12;80.55;100700.97;5050658;28;20053;-80
2022/02/01 01:13:12;;;;;;;6.43;3.53;;;;;;;11.18;80.05;100709.84;5050089;28;20039;-79
2022/02/01 01:15:49;;;;;;;5.63;3.15;;;;;;;11.16;79.57;100701.00;5036667;28;20081;-80
2022/02/01 01:54:10;;;;;;;4.53;1.95;;;;;;;11.07;73.74;100685.06;5005329;28;20037;-79
2022/02/01 01:56:38;;;;;;;3.60;2.10;;;;;;;11.04;73.37;100669.16;5047793;28;20049;-79
2022/02/01 01:59:08;;;;;;;7.75;2.08;;;;;;;11.03;73.53;100669.13;5050274;28;20065;-79
2022/02/01 02:01:36;;;;;;;6.53;2.90;;;;;;;11.01;73.32;100674.44;5050142;28;20385;-79
2022/02/01 02:04:06;;;;;;;6.97;2.28;;;;;;;10.96;73.19;100662.88;5031163;28;20068;-79
2022/02/01 02:06:34;;;;;;;4.68;2.10;;;;;;;10.97;73.36;100664.66;5030382;28;20061;-79
2022/02/01 02:09:04;;;;;;;5.07;1.85;;;;;;;10.96;73.14;100665.53;5030110;28;20120;-79
2022/02/01 02:11:40;;;;;;;3.10;1.25;;;;;;;10.94;73.28;100640.88;5030335;28;20123;-79
2022/02/01 02:14:19;;;;;;;4.40;1.55;;;;;;;10.92;73.57;100645.25;5028458;28;20124;-79
2022/02/01 02:16:50;;;;;;;4.75;2.00;;;;;;;10.91;73.83;100655.78;5011252;28;20478;-79
2022/02/01 02:19:20;;;;;;;5.82;1.88;;;;;;;10.88;73.98;100656.66;5030378;28;20034;-79
2022/02/01 02:21:51;;;;;;;6.25;2.22;;;;;;;10.90;74.06;100659.28;5028548;28;20152;-80
2022/02/01 02:24:20;;;;;;;4.50;1.83;;;;;;;10.86;74.01;100658.38;5029057;28;20489;-79
2022/02/01 02:26:50;;;;;;;8.93;2.60;;;;;;;10.92;74.04;100654.91;5030090;28;20080;-79
2022/02/01 02:29:18;;;;;;;4.97;1.80;;;;;;;10.93;73.89;100654.94;5030113;28;20061;-79
2022/02/01 02:31:46;;;;;;;5.00;2.00;;;;;;;10.91;74.03;100666.34;5022630;28;20047;-79
2022/02/01 02:34:15;;;;;;;5.93;2.85;;;;;;;10.89;73.92;100665.47;5048912;28;20481;-80
2022/02/01 02:36:54;;;;;;;7.60;3.22;;;;;;;10.85;73.88;100650.44;5049308;28;20411;-79
2022/02/01 02:39:30;;;;;;;5.20;2.53;;;;;;;10.82;74.21;100656.59;5048123;28;20049;-78
2022/02/01 02:42:23;;;;;;;11.30;3.45;;;;;;;10.85;74.13;100645.16;5049765;28;20048;-79
2022/02/01 02:45:08;;;;;;;3.75;2.17;;;;;;;10.84;74.27;100631.06;5038263;28;20404;-79
2022/02/01 02:47:35;;;;;;;;;;;;;;;10.78;74.77;100623.94;5049984;28;20052;-79
2022/02/01 02:50:04;;;;;;;4.50;2.17;;;;;;;10.81;75.25;100615.19;5049356;28;20015;-79
2022/02/01 02:52:33;;;;;;;11.70;2.58;;;;;;;10.89;75.81;100616.19;5034904;28;20489;-79
2022/02/01 02:55:01;;;;;;;7.25;3.15;;;;;;;10.95;75.69;100618.00;5028590;28;20037;-78
2022/02/01 02:57:28;;;;;;;8.25;3.75;;;;;;;10.96;75.71;100623.28;5012103;28;20111;-79
2022/02/01 02:59:56;;;;;;;10.93;3.80;;;;;;;10.91;75.55;100619.69;5028540;28;20041;-79
2022/02/01 03:02:24;;;;;;;8.13;3.97;;;;;;;10.92;75.48;100629.41;5045295;28;20045;-79
2022/02/01 03:04:52;;;;;;;10.65;5.07;;;;;;;10.90;75.69;100636.41;5029682;28;20046;-77
2022/02/01 03:07:20;;;;;;;11.25;3.90;;;;;;;10.89;75.64;100645.22;5044140;28;20049;-79
2022/02/01 03:09:49;;;;;;;8.38;3.30;;;;;;;10.89;75.74;100653.16;5047589;28;20107;-79
2022/02/01 03:12:31;;;;;;;9.65;3.70;;;;;;;10.90;75.64;100654.00;5047984;28;20404;-79
2022/02/01 03:15:33;;;;;;;14.73;5.57;;;;;;;10.96;76.14;100652.31;5029127;28;20049;-80
2022/02/01 03:20:28;;;;;;;10.57;5.70;;;;;;;11.18;76.53;100658.75;5015451;28;20517;-79
2022/02/01 03:22:56;;;;;;;16.23;8.32;;;;;;;11.32;76.29;100664.19;5027802;28;20053;-78
2022/02/01 03:25:25;;;;;;;16.98;9.50;;;;;;;11.41;76.46;100667.84;5027626;28;20424;-78
2022/02/01 03:27:53;;;;;;;11.85;7.13;;;;;;;11.47;76.60;100674.94;5030844;28;20037;-79
2022/02/01 03:30:22;;;;;;;9.40;4.55;;;;;;;11.51;76.82;100672.34;5032003;28;20037;-80
2022/02/01 03:32:50;;;;;;;7.45;2.22;;;;;;;11.58;77.16;100665.34;5052367;28;20398;-78
2022/02/01 03:35:17;;;;;;;9.40;2.13;;;;;;;11.65;77.94;100659.25;5044661;28;20052;-79
2022/02/01 03:37:45;;;;;;;4.20;2.05;;;;;;;11.70;78.13;100662.81;5051436;28;20065;-79
2022/02/01 03:40:16;;;;;;;6.65;2.00;;;;;;;11.72;78.41;100674.31;5051753;28;20056;-78
2022/02/01 03:42:45;;;;;;;7.07;2.60;;;;;;;11.70;78.58;100661.94;5051929;28;20045;-79
2022/02/01 03:45:13;;;;;;;8.25;2.30;;;;;;;11.65;78.70;100643.41;5051676;28;20983;-79
2022/02/01 03:47:41;;;;;;;5.78;1.77;;;;;;;11.64;78.81;100624.88;5050964;28;20048;-79
2022/02/01 03:50:09;;;;;;;7.68;2.10;;;;;;;11.61;78.96;100606.34;5051563;28;20037;-78
2022/02/01 03:52:37;;;;;;;8.15;2.35;;;;;;;11.56;79.34;100611.56;5051131;28;20037;-79
2022/02/01 03:55:05;;;;;;;4.43;2.22;;;;;;;11.47;79.74;100611.50;5050341;28;20041;-79
2022/02/01 03:57:33;;;;;;;5.45;1.80;;;;;;;11.46;80.44;100617.66;5051360;28;20041;-78
2022/02/01 04:00:05;;;;;;;4.63;1.45;;;;;;;11.54;81.11;100605.41;5030923;28;20037;-78
2022/02/01 04:02:39;;;;;;;6.18;1.63;;;;;;;11.59;81.38;100617.78;5051556;28;20049;-79
2022/02/01 04:05:07;;;;;;;2.97;1.15;;;;;;;11.63;81.68;100613.41;5050710;28;20087;-78
2022/02/01 04:07:35;;;;;;;5.55;1.38;;;;;;;11.73;82.03;100604.69;5050117;28;20103;-78
2022/02/01 04:10:03;;;;;;;6.40;2.25;;;;;;;11.81;81.94;100623.31;5050276;28;20127;-79
2022/02/01 04:12:31;;;;;;;7.72;1.67;;;;;;;11.84;81.92;100618.91;5050809;28;20045;-79
2022/02/01 04:15:01;;;;;;;7.18;1.60;;;;;;;11.91;82.19;100612.78;5050291;28;20414;-79
2022/02/01 04:17:30;;;;;;;7.28;1.92;;;;;;;11.95;81.92;100627.81;5051027;28;20041;-81
2022/02/01 04:19:58;;;;;;;7.10;1.38;;;;;;;11.97;81.95;100635.75;5050697;28;20087;-79
2022/02/01 04:22:25;;;;;;;9.48;1.40;;;;;;;12.00;82.02;100653.44;5051353;28;20619;-78
2022/02/01 04:24:53;;;;;;;5.38;1.40;;;;;;;12.07;81.99;100655.25;5050988;28;20062;-79
2022/02/01 04:27:30;;;;;;;4.90;1.17;;;;;;;12.11;81.93;100659.69;5050588;28;20566;-80
2022/02/01 04:30:06;;;;;;;7.90;1.48;;;;;;;12.18;81.97;100664.16;5051496;28;20053;-79
2022/02/01 04:32:37;;;;;;;2.97;1.05;;;;;;;12.20;81.63;100668.59;5033689;28;20124;-79
2022/02/01 04:35:06;;;;;;;8.40;1.42;;;;;;;12.21;82.09;100685.31;5051087;28;20052;-79
2022/02/01 04:37:34;;;;;;;4.03;0.85;;;;;;;12.17;82.14;100683.53;5032111;28;20076;-79
2022/02/01 04:40:02;;;;;;;7.20;1.98;;;;;;;12.20;82.24;100681.81;5030533;28;20566;-79
2022/02/01 04:42:34;;;;;;;12.77;2.60;;;;;;;12.24;82.20;100677.44;5031570;28;20451;-79
2022/02/01 04:45:02;;;;;;;4.47;1.60;;;;;;;12.25;82.18;100682.72;5029931;28;20042;-80
2022/02/01 04:47:32;;;;;;;10.85;4.47;;;;;;;12.27;82.11;100680.97;5030330;28;20125;-80
2022/02/01 04:50:02;;;;;;;12.20;4.20;;;;;;;12.30;81.95;100677.47;5032451;28;20041;-80
2022/02/01 04:52:30;;;;;;;9.25;2.33;;;;;;;12.29;82.04;100676.56;5031543;28;20049;-79
2022/02/01 04:54:58;;;;;;;7.18;1.75;;;;;;;12.28;81.76;100673.91;5014494;28;20620;-79
2022/02/01 04:57:26;;;;;;;18.80;4.95;;;;;;;12.24;82.00;100675.66;5029900;28;20056;-79
2022/02/01 04:59:54;;;;;;;14.98;3.63;;;;;;;12.24;82.14;100673.03;5031220;28;20038;-79
2022/02/01 05:02:23;;;;;;;7.32;2.90;;;;;;;12.26;82.44;100670.38;5030563;28;20413;-78
2022/02/01 05:04:51;;;;;;;12.35;3.75;;;;;;;12.27;82.11;100680.09;5015135;28;20118;-80
2022/02/01 05:07:22;;;;;;;10.30;3.45;;;;;;;12.28;82.15;100685.38;5030423;28;20045;-79
2022/02/01 05:09:50;;;;;;;14.32;5.72;;;;;;;12.28;82.36;100681.84;5030663;28;20444;-79
2022/02/01 05:12:18;;;;;;;6.25;2.60;;;;;;;12.28;82.39;100680.09;5029944;28;20056;-79
2022/02/01 05:14:48;;;;;;;6.63;2.00;;;;;;;12.29;82.30;100692.47;5030469;28;20095;-79
2022/02/01 05:17:17;;;;;;;7.38;1.98;;;;;;;12.30;82.41;100682.75;5029436;28;20072;-79
2022/02/01 05:19:48;;;;;;;14.68;5.10;;;;;;;12.27;82.25;100678.31;5031556;28;20049;-79
2022/02/01 05:22:19;;;;;;;5.38;2.65;;;;;;;12.34;82.54;100681.88;5030119;28;20037;-79
2022/02/01 05:24:52;;;;;;;4.78;2.03;;;;;;;12.28;82.94;100684.50;5030386;28;20041;-79
2022/02/01 05:27:22;;;;;;;13.32;2.67;;;;;;;12.26;83.26;100686.28;5029136;28;20044;-79
2022/02/01 05:29:50;;;;;;;9.07;2.75;;;;;;;12.25;83.27;100676.56;5015695;28;20102;-78
2022/02/01 05:32:25;;;;;;;12.07;4.45;;;;;;;12.27;83.26;100682.75;5029482;28;20056;-79
2022/02/01 05:34:54;;;;;;;9.77;3.13;;;;;;;12.31;83.34;100668.66;5030219;28;20397;-79
2022/02/01 05:37:22;;;;;;;13.48;3.95;;;;;;;12.38;83.07;100670.47;5029429;28;20488;-78
2022/02/01 05:39:52;;;;;;;4.72;1.42;;;;;;;12.41;82.44;100654.59;5033410;28;20098;-79
2022/02/01 05:42:25;;;;;;;5.95;1.00;;;;;;;12.38;82.54;100644.88;5029591;28;20045;-78
2022/02/01 05:44:52;;;;;;;3.30;1.52;;;;;;;12.51;82.44;100635.25;5030843;28;20049;-79
2022/02/01 05:47:20;;;;;;;5.68;1.50;;;;;;;12.56;82.03;100643.22;5028140;28;20409;-77
2022/02/01 05:49:48;;;;;;;5.80;2.00;;;;;;;12.63;81.89;100640.59;5027761;28;20079;-78
2022/02/01 05:52:15;;;;;;;10.68;2.42;;;;;;;12.76;81.57;100653.03;5012136;28;20047;-77
2022/02/01 05:54:43;;;;;;;15.55;3.42;;;;;;;12.88;81.21;100661.91;5029902;28;22388;-78
2022/02/01 05:57:12;;;;;;;11.77;3.55;;;;;;;13.03;81.23;100656.69;5049828;28;20070;-77
2022/02/01 05:59:39;;;;;;;13.68;4.40;;;;;;;13.06;80.48;100660.22;5032725;28;20663;-78
2022/02/01 06:02:07;;;;;;;9.23;2.35;;;;;;;13.10;80.35;100661.13;5051071;28;20033;-78
2022/02/01 06:04:35;;;;;;;4.45;1.85;;;;;;;13.12;80.52;100668.25;5048799;28;20118;-78
2022/02/01 06:07:03;;;;;;;11.45;4.60;;;;;;;13.22;80.38;100663.84;5047687;28;20051;-78
2022/02/01 06:09:30;;;;;;;10.70;4.63;;;;;;;13.29;80.13;100670.06;5048247;28;20620;-78
2022/02/01 06:11:58;;;;;;;9.18;2.47;;;;;;;13.31;80.27;100666.53;5048283;28;20040;-78
2022/02/01 06:14:27;;;;;;;5.95;1.63;;;;;;;13.33;79.82;100662.09;5065048;28;20055;-77
2022/02/01 06:16:55;;;;;;;9.63;2.58;;;;;;;13.34;79.82;100665.66;5049468;28;20049;-78
2022/02/01 06:19:22;;;;;;;8.02;1.70;;;;;;;13.41;79.73;100665.66;5049585;28;20051;-78
2022/02/01 06:21:50;;;;;;;11.43;2.28;;;;;;;13.46;79.53;100666.56;5049088;28;20052;-78
2022/02/01 06:24:20;;;;;;;6.40;2.88;;;;;;;13.54;79.90;100662.16;5030804;28;20045;-77
2022/02/01 06:26:48;;;;;;;6.85;3.03;;;;;;;13.60;80.06;100661.28;5048555;28;21970;-78
2022/02/01 06:29:15;;;;;;;9.93;3.95;;;;;;;13.68;80.05;100654.22;5032376;28;20045;-77
2022/02/01 06:31:44;;;;;;;11.52;4.07;;;;;;;13.77;79.78;100656.91;5028178;28;20059;-78
2022/02/01 06:34:12;;;;;;;10.27;5.78;;;;;;;13.80;79.95;100661.31;5047373;28;20130;-79
2022/02/01 06:36:40;;;;;;;8.85;4.40;;;;;;;13.81;79.60;100671.03;5047839;28;20132;-77
2022/02/01 06:39:09;;;;;;;7.40;3.47;;;;;;;13.86;79.55;100682.53;5048415;28;20041;-78
2022/02/01 06:41:37;;;;;;;4.53;1.50;;;;;;;13.94;79.60;100667.50;5038590;28;20048;-77
2022/02/01 06:44:05;;;;;;;7.50;2.80;;;;;;;14.04;79.13;100674.59;5053604;28;20049;-78
2022/02/01 06:46:34;;;;;;;6.35;3.08;;;;;;;14.10;78.43;100677.25;5046505;28;20467;-78
2022/02/01 06:49:05;;;;;;;6.18;2.00;;;;;;;14.10;78.42;100671.94;5045469;28;20045;-78
2022/02/01 06:51:32;;;;;;;8.77;1.35;;;;;;;14.18;78.41;100675.47;5049098;28;20044;-79
2022/02/01 06:54:01;;;;;;;7.88;1.20;;;;;;;14.32;77.99;100662.16;5046943;28;20041;-79
2022/02/01 06:56:33;;;;;;;7.55;2.47;;;;;;;14.53;77.93;100675.47;5048144;28;20072;-79
2022/02/01 06:59:02;;;;;;;11.82;2.35;;;;;;;14.72;77.71;100673.63;5031724;28;20122;-79
2022/02/01 07:01:31;;;;;;;5.10;1.83;;;;;;;15.04;77.36;100674.41;5051372;28;20079;-78
2022/02/01 07:03:59;;;;;;;7.97;1.45;;;;;;;15.44;76.71;100668.91;5051862;28;20041;-79
2022/02/01 07:06:32;;;;;;;6.10;3.05;;;;;;;15.80;75.48;100676.69;5053321;28;20051;-79
2022/02/01 07:09:01;;;;;;;11.77;5.30;;;;;;;15.79;74.90;100677.59;5035585;28;20041;-79
2022/02/01 07:11:29;;;;;;;8.60;5.07;;;;;;;16.00;74.96;100668.56;5052516;28;20076;-79
2022/02/01 07:13:57;;;;;;;12.95;5.65;;;;;;;16.23;74.23;100673.66;5050903;28;20049;-79
2022/02/01 07:16:25;;;;;;;14.52;7.43;;;;;;;16.17;73.84;100677.28;5050833;28;20103;-78
2022/02/01 07:18:52;;;;;;;11.52;5.57;;;;;;;16.37;73.97;100679.75;5052038;28;20037;-79
2022/02/01 07:21:21;;;;;;;15.50;9.05;;;;;;;16.57;73.53;100668.91;5035095;28;20064;-79
2022/02/01 07:23:50;;;;;;;24.38;14.32;;;;;;;16.41;72.99;100673.50;5068752;28;20714;-79
2022/02/01 07:26:20;;;;;;;10.50;6.22;;;;;;;16.03;72.79;100673.84;5052801;28;20056;-79
2022/02/01 07:28:48;;;;;;;22.02;11.18;;;;;;;15.95;73.52;100692.53;5051275;28;20493;-79
2022/02/01 07:31:16;;;;;;;18.60;6.78;;;;;;;15.79;73.50;100696.22;5049801;28;20511;-79
2022/02/01 07:33:44;;;;;;;13.50;6.40;;;;;;;15.65;74.06;100684.78;5052860;28;24551;-78
2022/02/01 07:36:16;;;;;;;13.18;3.03;;;;;;;15.55;74.14;100693.72;5052680;28;20546;-78
2022/02/01 07:38:43;;;;;;;13.25;3.92;;;;;;;15.47;73.89;100693.72;5052460;28;20048;-79
2022/02/01 07:41:13;;;;;;;9.43;4.43;;;;;;;15.36;74.39;100694.69;5051112;28;20037;-79
2022/02/01 07:43:40;;;;;;;9.25;3.20;;;;;;;15.21;74.67;100698.28;5051598;28;20504;-79
2022/02/01 07:46:29;;;;;;;10.35;2.85;;;;;;;15.02;75.51;100701.91;5050988;28;20041;-80
2022/02/01 07:48:57;;;;;;;9.00;3.50;;;;;;;14.81;76.83;100708.19;5051323;28;20431;-79
2022/02/01 07:51:25;;;;;;;7.25;2.78;;;;;;;14.58;78.48;100712.63;5051366;28;20570;-79
2022/02/01 07:53:52;;;;;;;6.82;2.55;;;;;;;14.39;79.77;100709.13;5051462;28;20048;-79
2022/02/01 07:56:22;;;;;;;24.30;16.52;;;;;;;14.28;80.80;100698.47;5052607;28;20041;-79
2022/02/01 07:58:49;;;;;;;39.05;25.35;;;;;;;14.18;81.82;100709.97;5050104;28;20076;-78
2022/02/01 08:01:17;;;;;;;38.55;27.63;;;;;;;14.16;82.57;100703.81;5029504;28;20041;-79
2022/02/01 08:03:45;;;;;;;50.83;35.70;;;;;;;14.24;83.03;100699.34;5030896;28;20048;-79
2022/02/01 08:06:15;;;;;;;57.33;35.65;;;;;;;14.27;83.26;100707.31;5030835;28;20044;-80
2022/02/01 08:08:43;;;;;;;44.05;28.38;;;;;;;14.27;83.64;100694.06;5030153;28;20056;-79
2022/02/01 08:11:14;;;;;;;33.97;20.50;;;;;;;14.28;83.63;100698.47;5031056;28;20038;-78
2022/02/01 08:19:25;;;;;;;56.08;37.22;;;;;;;14.41;83.74;100686.13;5026448;28;20529;-78
2022/02/01 08:21:55;;;;;;;33.67;23.00;;;;;;;14.52;83.66;100680.75;5027605;28;20651;-79
2022/02/01 08:24:23;;;;;;;48.33;28.42;;;;;;;14.75;83.65;100679.84;5030641;28;20107;-79
2022/02/01 08:26:51;;;;;;;50.58;27.92;;;;;;;14.79;82.82;100686.03;5029987;28;20053;-78
2022/02/01 08:29:20;;;;;;;35.17;22.50;;;;;;;14.75;82.38;100689.59;5030229;28;20049;-79
2022/02/01 08:31:48;;;;;;;33.60;20.33;;;;;;;14.65;81.90;100679.84;5029656;28;20136;-78
2022/02/01 08:34:18;;;;;;;39.95;26.25;;;;;;;14.56;82.17;100685.22;5029892;28;20573;-79
2022/02/01 08:36:46;;;;;;;18.52;7.25;;;;;;;14.43;82.32;100688.78;5029806;28;20064;-78
2022/02/01 08:39:14;;;;;;;12.02;4.05;;;;;;;14.37;82.55;100713.53;5029214;28;20041;-78
2022/02/01 08:41:44;;;;;;;16.77;3.72;;;;;;;14.39;82.99;100703.81;5028782;28;20045;-78
2022/02/01 08:44:11;;;;;;;13.18;3.03;;;;;;;14.56;83.16;100707.34;5028352;28;20060;-79
2022/02/01 08:46:41;;;;;;;11.32;3.53;;;;;;;14.71;83.37;100696.66;5056635;28;20076;-78
2022/02/01 08:49:08;;;;;;;33.15;13.40;;;;;;;14.83;83.23;100698.44;5050385;28;20546;-79
2022/02/01 08:51:42;;;;;;;23.33;13.65;;;;;;;14.90;82.70;100702.81;5028178;28;20065;-79
2022/02/01 08:54:16;;;;;;;22.95;7.38;;;;;;;15.17;82.05;100699.19;5046767;28;20037;-82
2022/02/01 08:59:29;;;;;;;11.90;5.35;;;;;;;15.37;80.54;100694.66;5059149;28;20053;-79
2022/02/01 09:01:59;;;;;;;20.67;8.70;;;;;;;15.76;79.82;100698.88;5047368;28;20055;-79
2022/02/01 09:04:27;;;;;;;22.88;13.45;;;;;;;16.16;77.24;100683.50;5046397;28;20075;-77
2022/02/01 09:06:55;;;;;;;28.23;14.15;;;;;;;16.67;77.19;100675.97;5046973;28;20044;-79
2022/02/01 09:09:23;;;;;;;13.05;9.48;;;;;;;17.07;74.78;100671.00;5049218;28;20052;-78
2022/02/01 09:11:52;;;;;;;19.02;11.27;;;;;;;16.89;72.07;100696.13;5049525;28;20120;-78
2022/02/01 09:14:20;;;;;;;14.68;8.23;;;;;;;16.65;71.20;100680.41;5029194;28;20431;-76
2022/02/01 09:16:48;;;;;;;14.63;6.72;;;;;;;16.69;71.34;100685.69;5030658;28;20049;-78
2022/02/01 09:19:19;;;;;;;9.63;3.38;;;;;;;16.60;70.21;100695.56;5044811;28;20048;-78
2022/02/01 09:21:48;;;;;;;10.63;4.82;;;;;;;16.82;69.98;100688.22;5035496;28;20091;-78
2022/02/01 09:24:15;;;;;;;14.02;4.55;;;;;;;16.83;70.00;100679.31;5047961;28;20047;-78
2022/02/01 09:26:43;;;;;;;6.30;2.10;;;;;;;17.20;69.78;100674.44;5046371;28;20134;-78
2022/02/01 09:29:11;;;;;;;11.93;2.13;;;;;;;17.49;67.62;100672.25;5046102;28;20043;-78
2022/02/01 09:31:40;;;;;;;8.07;2.85;;;;;;;17.61;66.55;100652.53;5043568;28;20037;-79
2022/02/01 09:34:09;;;;;;;11.93;2.65;;;;;;;17.79;66.03;100650.44;5041118;28;20056;-77
2022/02/01 09:36:39;;;;;;;14.18;4.97;;;;;;;17.92;65.20;100649.34;5038762;28;20168;-78
2022/02/01 09:39:08;;;;;;;8.32;3.72;;;;;;;17.83;66.11;100638.84;5059255;28;20132;-77
2022/02/01 09:41:39;;;;;;;15.02;8.25;;;;;;;17.70;65.16;100625.69;5026907;28;20607;-78
2022/02/01 09:44:09;;;;;;;15.50;10.23;;;;;;;17.24;65.59;100641.47;5036410;28;20577;-76
2022/02/01 09:46:36;;;;;;;12.80;5.05;;;;;;;16.88;65.64;100627.69;5036942;28;20041;-77
2022/02/01 09:49:05;;;;;;;10.30;3.78;;;;;;;16.63;66.47;100636.88;5041378;28;20508;-77
2022/02/01 09:51:32;;;;;;;5.00;1.83;;;;;;;16.40;67.08;100637.13;5041441;28;20041;-77
2022/02/01 09:54:02;;;;;;;6.20;2.15;;;;;;;16.23;67.93;100637.25;5044324;28;20056;-77
2022/02/01 09:56:31;;;;;;;12.68;2.55;;;;;;;16.09;69.55;100628.50;5035462;28;20045;-77
2022/02/01 09:58:59;;;;;;;23.55;9.93;;;;;;;16.16;70.66;100634.66;5046055;28;20052;-77
2022/02/01 10:01:31;;;;;;;20.10;9.65;;;;;;;16.30;70.88;100630.97;5046070;28;20045;-77
2022/02/01 10:04:04;;;;;;;12.35;4.45;;;;;;;16.48;70.45;100626.34;5045572;28;20029;-76
2022/02/01 10:06:32;;;;;;;10.15;2.47;;;;;;;16.64;68.35;100602.22;5044276;28;20053;-76
2022/02/01 10:09:08;;;;;;;7.95;2.17;;;;;;;16.60;67.76;100636.94;5034225;28;20590;-77
2022/02/01 10:11:37;;;;;;;10.07;3.53;;;;;;;16.42;67.94;100627.31;5038701;28;20132;-77
2022/02/01 10:14:07;;;;;;;18.58;7.95;;;;;;;16.31;69.37;100627.41;5040898;28;20041;-77
2022/02/01 10:16:43;;;;;;;23.98;11.52;;;;;;;16.29;69.73;100625.66;5044187;28;20037;-78
2022/02/01 10:19:13;;;;;;;21.27;10.65;;;;;;;16.21;69.71;100625.72;5040627;28;21886;-77
2022/02/01 10:21:52;;;;;;;12.52;2.85;;;;;;;16.11;69.66;100608.09;5039679;28;20083;-78
2022/02/01 10:24:32;;;;;;;10.40;3.60;;;;;;;16.02;69.89;100610.81;5042236;28;20745;-77
2022/02/01 10:27:09;;;;;;;18.13;8.43;;;;;;;15.94;70.50;100613.59;5028724;28;20049;-76
2022/02/01 10:29:39;;;;;;;10.93;3.60;;;;;;;15.94;70.51;100612.69;5027600;28;20445;-76
2022/02/01 10:32:17;;;;;;;7.20;1.63;;;;;;;16.01;69.71;100600.22;5026754;28;20034;-76
2022/02/01 10:34:46;;;;;;;8.75;1.52;;;;;;;15.97;68.65;100594.00;5006854;28;20065;-75
2022/02/01 10:37:19;;;;;;;12.55;4.07;;;;;;;16.02;68.80;100597.50;5014074;28;20053;-76
2022/02/01 10:39:55;;;;;;;13.43;6.13;;;;;;;16.06;69.94;100593.94;5014058;28;20567;-77
2022/02/01 10:42:25;;;;;;;16.17;4.10;;;;;;;16.06;70.47;100606.38;5041502;28;20046;-78
2022/02/01 10:44:54;;;;;;;17.30;5.68;;;;;;;16.11;70.58;100605.41;5026983;28;20041;-77
2022/02/01 10:47:33;;;;;;;25.20;14.85;;;;;;;16.22;70.58;100589.31;5041050;28;20134;-76
2022/02/01 10:50:06;;;;;;;20.63;11.07;;;;;;;16.53;69.52;100573.91;5042057;28;20065;-76
2022/02/01 10:52:36;;;;;;;11.00;5.18;;;;;;;16.63;68.16;100567.59;5035244;28;20056;-76
2022/02/01 10:55:08;;;;;;;11.25;6.28;;;;;;;16.60;67.64;100579.19;5045295;28;20116;-76
2022/02/01 10:57:36;;;;;;;14.70;10.25;;;;;;;16.61;67.18;100577.38;5045472;28;20052;-78
2022/02/01 11:00:05;;;;;;;17.70;8.80;;;;;;;16.57;66.98;100587.16;5045475;28;20041;-77
2022/02/01 11:02:37;;;;;;;20.02;10.52;;;;;;;16.52;67.24;100573.03;5032126;28;20041;-78
2022/02/01 11:05:08;;;;;;;23.27;15.43;;;;;;;16.46;67.77;100586.41;5043654;28;20044;-78
2022/02/01 11:07:36;;;;;;;24.73;9.57;;;;;;;16.41;67.20;100579.38;5045145;28;20076;-78
2022/02/01 11:10:10;;;;;;;12.18;3.28;;;;;;;16.38;65.65;100585.63;5045121;28;20041;-77
2022/02/01 11:12:40;;;;;;;11.05;2.40;;;;;;;16.31;65.04;100584.78;5042493;28;20049;-78
2022/02/01 11:15:19;;;;;;;10.55;2.78;;;;;;;16.29;65.19;100565.28;5019726;28;20038;-77
2022/02/01 11:17:49;;;;;;;10.70;4.13;;;;;;;16.27;64.81;100579.53;5029109;28;20038;-78
2022/02/01 11:20:27;;;;;;;21.40;7.40;;;;;;;16.28;66.16;100591.91;5062232;28;20532;-75
2022/02/01 11:23:03;;;;;;;17.80;6.13;;;;;;;16.20;66.74;100599.13;5057673;28;20134;-75
2022/02/01 11:25:45;;;;;;;9.85;4.78;;;;;;;16.12;67.04;100587.66;5036278;28;20089;-74
2022/02/01 11:28:34;;;;;;;4.35;1.33;;;;;;;16.10;66.16;100598.31;5035944;28;20065;-75
2022/02/01 11:31:05;;;;;;;10.45;1.92;;;;;;;16.12;66.66;100615.19;5042215;28;20041;-75
2022/02/01 11:33:40;;;;;;;4.75;2.42;;;;;;;16.09;66.83;100609.00;5036430;28;20449;-75
2022/02/01 11:36:10;;;;;;;14.55;3.67;;;;;;;16.06;65.22;100585.94;5032392;28;20045;-75
2022/02/01 11:38:50;;;;;;;3.45;0.88;;;;;;;16.10;63.53;100595.66;5042338;28;20102;-75
2022/02/01 11:41:31;;;;;;;6.38;1.88;;;;;;;16.15;64.17;100588.50;5045221;28;20120;-76
2022/02/01 11:44:11;;;;;;;9.00;2.00;;;;;;;16.19;64.64;100578.72;5061155;28;20060;-74
2022/02/01 11:46:39;;;;;;;13.90;6.45;;;;;;;16.25;64.89;100582.19;5027743;28;20052;-75
2022/02/01 11:49:08;;;;;;;7.30;4.22;;;;;;;16.29;65.18;100585.69;5029359;28;20049;-76
2022/02/01 11:51:35;;;;;;;12.93;4.90;;;;;;;16.32;64.68;100602.56;5033423;28;20547;-75
2022/02/01 11:54:04;;;;;;;10.18;5.50;;;;;;;16.33;64.82;100601.66;5029207;28;20072;-75
2022/02/01 11:56:39;;;;;;;12.88;3.25;;;;;;;16.28;63.83;100592.81;5030724;28;20493;-76
2022/02/01 11:59:11;;;;;;;17.30;4.40;;;;;;;16.24;64.50;100607.06;5030721;28;20874;-75
2022/02/01 12:01:40;;;;;;;8.95;5.15;;;;;;;16.27;64.98;100603.50;5046366;28;20484;-76
2022/02/01 12:04:11;;;;;;;9.93;3.97;;;;;;;16.24;64.32;100601.75;5046096;28;20737;-75
2022/02/01 12:06:43;;;;;;;4.70;2.58;;;;;;;16.23;63.92;100593.75;5045662;28;20386;-75
2022/02/01 12:09:18;;;;;;;8.68;2.83;;;;;;;16.21;64.73;100584.91;5045641;28;20033;-75
2022/02/01 12:11:49;;;;;;;6.32;1.33;;;;;;;16.24;64.39;100598.19;5049210;28;20576;-75
2022/02/01 12:14:17;;;;;;;9.88;3.92;;;;;;;16.27;64.79;100574.19;5051744;28;20037;-75
2022/02/01 12:16:48;;;;;;;11.27;2.92;;;;;;;16.28;65.11;100576.81;5049761;28;20130;-75
2022/02/01 12:19:21;;;;;;;7.50;1.55;;;;;;;16.24;64.25;100572.44;5046872;28;20041;-76
2022/02/01 12:21:59;;;;;;;10.02;2.47;;;;;;;16.26;64.57;100544.00;5047907;28;20049;-75
2022/02/01 12:24:28;;;;;;;8.27;1.83;;;;;;;16.27;65.29;100566.22;5048515;28;20048;-75
2022/02/01 12:26:57;;;;;;;11.65;5.00;;;;;;;16.31;64.85;100546.63;5044438;28;20484;-75
2022/02/01 12:29:27;;;;;;;12.00;3.28;;;;;;;16.26;64.03;100554.66;5043642;28;20049;-75
2022/02/01 12:31:54;;;;;;;9.32;1.92;;;;;;;16.25;63.77;100568.88;5063014;28;20041;-75
2022/02/01 12:34:24;;;;;;;8.73;2.10;;;;;;;16.28;64.44;100575.94;5048361;28;20168;-76
2022/02/01 12:36:54;;;;;;;12.98;2.40;;;;;;;16.27;63.67;100569.75;5041751;28;20454;-77